Weather History for Fosston, MN

Change the Weather History Date:

Tuesday, May 13, 2014

  Actual Average Record
Temperature  
Mean Temperature 42 °F -  
Max Temperature 46 °F 66 °F 90 °F (1991)
Min Temperature 37 °F 39 °F 24 °F (1953)
Degree Days  
Heating Degree Days 24    
Moisture  
Dew Point 36 °F    
Average Humidity 87    
Maximum Humidity 100    
Minimum Humidity 71    
Precipitation  
Precipitation 0.03 in - - ()
Sea Level Pressure  
Sea Level Pressure 30.02 in    
Wind  
Wind Speed 14 mph (WNW)    
Max Wind Speed 24 mph    
Max Gust Speed 31 mph    
Visibility 9 miles    
Events Rain    
Averages and records for this station are not official NWS values.
T = Trace of Precipitation, MM = Missing Value Source: NWS Daily Summary

Daily Weather History Graph

Daily Weather History Graph

Search for Another Location

Airport:

Trip Planner

Search our weather history database for the weather conditions in past years. The results will help you decide how hot, cold, wet, or windy it might be!

Date:

Astronomy

May. 13, 2014 Rise Set
Actual Time 5:48 AM CDT 8:51 PM CDT
Civil Twilight 5:11 AM CDT 9:27 PM CDT
Nautical Twilight 4:25 AM CDT 10:15 PM CDT
Astronomical Twilight 3:27 AM CDT 11:13 PM CDT
Moon 7:49 PM CDT (5/13) 5:12 AM CDT (5/13)
Length of Visible Light 16h 15m
Length of Day
15h 03m
Waxing Gibbous, 99% of the Moon is Illuminated
May 13
Waxing Gibbous
May 14
Full
May 21
Last Quarter
May 28
New
Jun 5
First Quarter

Hourly Weather History & Observations

Time (CDT) Temp. Windchill Dew Point Humidity Pressure Visibility Wind Dir Wind Speed Gust Speed Precip Events Conditions
12:15 AM 39.2 °F 32.5 °F 37.4 °F 93% 29.88 in 7.0 mi NNW 10.4 mph - 0.01 in   Drizzle
12:35 AM 39.2 °F 33.0 °F 37.4 °F 93% 29.88 in 5.0 mi NNW 9.2 mph - 0.01 in   Drizzle
1:15 AM 39.2 °F 31.6 °F 37.4 °F 93% 29.89 in 3.0 mi North 12.7 mph - 0.01 in   Drizzle
1:35 AM 39.2 °F 31.2 °F 37.4 °F 93% 29.88 in 4.0 mi NNW 13.8 mph - 0.01 in Rain Light Rain
1:55 AM 39.2 °F 31.2 °F 37.4 °F 93% 29.87 in 7.0 mi NNW 13.8 mph 19.6 mph 0.01 in   Drizzle
2:35 AM 37.4 °F 28.5 °F 37.4 °F 100% 29.86 in 4.0 mi NW 15.0 mph 20.7 mph N/A Rain Light Rain
2:55 AM 37.4 °F 28.5 °F 37.4 °F 100% 29.87 in 10.0 mi NW 15.0 mph 19.6 mph 0.01 in Rain Light Rain
3:15 AM 37.4 °F 27.5 °F 35.6 °F 93% 29.88 in 10.0 mi NW 18.4 mph 26.5 mph N/A Rain Rain
3:35 AM 37.4 °F 27.5 °F 35.6 °F 93% 29.90 in 10.0 mi WNW 18.4 mph 25.3 mph N/A   Drizzle
3:55 AM 37.4 °F 28.2 °F 35.6 °F 93% 29.90 in 10.0 mi NW 16.1 mph 21.9 mph N/A   Light Drizzle
4:15 AM 37.4 °F 28.5 °F 35.6 °F 93% 29.91 in 7.0 mi WNW 15.0 mph - N/A   Light Drizzle
4:35 AM 37.4 °F 27.2 °F 35.6 °F 93% 29.90 in 7.0 mi NW 19.6 mph 24.2 mph N/A   Light Drizzle
4:55 AM 37.4 °F 27.8 °F 35.6 °F 93% 29.92 in 10.0 mi NW 17.3 mph 24.2 mph N/A   Light Drizzle
5:15 AM 37.4 °F 27.2 °F 35.6 °F 93% 29.92 in 10.0 mi NW 19.6 mph 24.2 mph N/A   Light Drizzle
5:35 AM 37.4 °F 28.2 °F 35.6 °F 93% 29.92 in 10.0 mi WNW 16.1 mph 23.0 mph N/A   Light Drizzle
5:55 AM 37.4 °F 28.2 °F 35.6 °F 93% 29.93 in 10.0 mi WNW 16.1 mph 23.0 mph N/A   Overcast
6:15 AM 37.4 °F 27.8 °F 35.6 °F 93% 29.93 in 7.0 mi WNW 17.3 mph 28.8 mph N/A   Overcast
6:35 AM 37.4 °F 28.5 °F 37.4 °F 100% 29.94 in 4.0 mi WNW 15.0 mph 25.3 mph N/A   Overcast
6:55 AM 37.4 °F 28.2 °F 35.6 °F 93% 29.94 in 10.0 mi NW 16.1 mph 25.3 mph N/A   Overcast
7:15 AM 37.4 °F 26.9 °F 35.6 °F 93% 29.95 in 10.0 mi NW 20.7 mph 29.9 mph N/A   Overcast
8:15 AM 37.4 °F 27.5 °F 35.6 °F 93% 29.98 in 4.0 mi WNW 18.4 mph 26.5 mph N/A   Overcast
8:35 AM 37.4 °F 26.9 °F 35.6 °F 93% 29.98 in 7.0 mi WNW 20.7 mph 28.8 mph N/A   Overcast
8:55 AM 37.4 °F 26.1 °F 35.6 °F 93% 29.99 in 7.0 mi NW 24.2 mph 31.1 mph N/A   Overcast
9:15 AM 37.4 °F 28.2 °F 35.6 °F 93% 30.00 in 7.0 mi NW 16.1 mph 26.5 mph N/A   Overcast
9:55 AM 37.4 °F 26.6 °F 35.6 °F 93% 30.00 in 10.0 mi NW 21.9 mph 28.8 mph N/A   Overcast
11:35 AM 39.2 °F 31.2 °F 37.4 °F 93% 30.03 in 10.0 mi WNW 13.8 mph 27.6 mph N/A   Overcast
11:55 AM 39.2 °F 29.6 °F 37.4 °F 93% 30.04 in 10.0 mi NW 19.6 mph 29.9 mph N/A   Overcast
12:35 PM 39.2 °F 30.2 °F 37.4 °F 93% 30.05 in 10.0 mi WNW 17.3 mph 23.0 mph N/A   Overcast
12:55 PM 41.0 °F 33.5 °F 37.4 °F 87% 30.05 in 10.0 mi WNW 13.8 mph 24.2 mph N/A   Overcast
1:15 PM 41.0 °F 32.8 °F 37.4 °F 87% 30.06 in 10.0 mi WNW 16.1 mph 27.6 mph N/A   Overcast
1:35 PM 42.8 °F 34.5 °F 37.4 °F 81% 30.07 in 10.0 mi WNW 18.4 mph 26.5 mph N/A   Overcast
1:55 PM 41.0 °F 33.9 °F 37.4 °F 87% 30.07 in 5.0 mi NW 12.7 mph 24.2 mph N/A   Drizzle
2:15 PM 44.6 °F 37.8 °F 37.4 °F 76% 30.07 in 10.0 mi WNW 15.0 mph 20.7 mph N/A   Scattered Clouds
2:35 PM 42.8 °F 33.8 °F 37.4 °F 81% 30.08 in 10.0 mi WNW 21.9 mph 31.1 mph N/A Rain Light Rain
2:55 PM 42.8 °F 36.6 °F 37.4 °F 81% 30.09 in 10.0 mi WNW 11.5 mph 18.4 mph N/A   Overcast
3:15 PM 42.8 °F 36.2 °F 37.4 °F 81% 30.09 in 10.0 mi WNW 12.7 mph 19.6 mph N/A Rain Light Rain
3:35 PM 44.6 °F 36.6 °F 35.6 °F 71% 30.09 in 10.0 mi WNW 19.6 mph 24.2 mph N/A   Overcast
3:55 PM 44.6 °F 36.6 °F 35.6 °F 71% 30.09 in 10.0 mi WNW 19.6 mph 28.8 mph N/A   Overcast
4:02 PM 44.6 °F 37.2 °F 35.6 °F 71% 30.09 in 10.0 mi WNW 17.3 mph 28.8 mph N/A   Overcast
4:35 PM 46.4 °F 39.8 °F 37.4 °F 71% 30.09 in 10.0 mi West 16.1 mph 21.9 mph N/A   Overcast
4:55 PM 44.6 °F 37.8 °F 37.4 °F 76% 30.10 in 10.0 mi WNW 15.0 mph - N/A Rain Rain
5:15 PM 44.6 °F 37.2 °F 37.4 °F 76% 30.10 in 10.0 mi West 17.3 mph 20.7 mph N/A   Overcast
5:35 PM 41.0 °F 33.9 °F 37.4 °F 87% 30.11 in 10.0 mi WNW 12.7 mph 21.9 mph 0.01 in Rain Light Rain
5:55 PM 42.8 °F 35.4 °F 37.4 °F 81% 30.11 in 10.0 mi West 15.0 mph 18.4 mph 0.01 in   Overcast
6:15 PM 42.8 °F 36.2 °F 37.4 °F 81% 30.10 in 10.0 mi West 12.7 mph - N/A   Overcast
6:35 PM 42.8 °F 35.8 °F 37.4 °F 81% 30.10 in 10.0 mi West 13.8 mph 20.7 mph N/A   Overcast
7:15 PM 44.6 °F 37.8 °F 35.6 °F 71% 30.11 in 10.0 mi West 15.0 mph 26.5 mph N/A   Mostly Cloudy
7:35 PM 42.8 °F 37.5 °F 35.6 °F 76% 30.11 in 10.0 mi WNW 9.2 mph 12.7 mph N/A   Mostly Cloudy
7:55 PM 42.8 °F 37.0 °F 35.6 °F 76% 30.11 in 10.0 mi WNW 10.4 mph - N/A   Overcast
8:15 PM 42.8 °F 36.2 °F 35.6 °F 76% 30.11 in 10.0 mi West 12.7 mph 18.4 mph N/A   Overcast
8:35 PM 42.8 °F 36.6 °F 35.6 °F 76% 30.12 in 10.0 mi West 11.5 mph - N/A   Overcast
8:55 PM 41.0 °F 34.7 °F 35.6 °F 81% 30.12 in 10.0 mi WNW 10.4 mph - N/A   Overcast
9:15 PM 39.2 °F 33.6 °F 35.6 °F 87% 30.12 in 10.0 mi West 8.1 mph - N/A   Mostly Cloudy
9:55 PM 37.4 °F 32.1 °F 35.6 °F 93% 30.12 in 10.0 mi West 6.9 mph - N/A   Mostly Cloudy
10:15 PM 37.4 °F 31.4 °F 35.6 °F 93% 30.13 in 10.0 mi West 8.1 mph - N/A   Mostly Cloudy
10:35 PM 37.4 °F 32.8 °F 33.8 °F 87% 30.13 in 10.0 mi West 5.8 mph - N/A   Overcast
10:56 PM 37.4 °F 32.1 °F 33.8 °F 87% 30.13 in 10.0 mi West 6.9 mph - N/A   Scattered Clouds
11:15 PM 37.4 °F 32.1 °F 33.8 °F 87% 30.13 in 10.0 mi West 6.9 mph - N/A   Clear
11:35 PM 37.4 °F 32.1 °F 33.8 °F 87% 30.13 in 10.0 mi West 6.9 mph - N/A   Mostly Cloudy
11:55 PM 37.4 °F 31.4 °F 33.8 °F 87% 30.13 in 10.0 mi West 8.1 mph - N/A   Overcast